Time,TemperatureF,DewpointF,PressureIn,WindDirection,WindDirectionDegrees,WindSpeedMPH,WindSpeedGustMPH,Humidity,HourlyPrecipIn,Conditions,Clouds,dailyrainin,SoftwareType,DateUTC
2013-03-06 00:01:00,26.1,-99.9,29.94,ENE,66,0.0,0.0,-999,0.00,,,-99.99,perl,2013-03-06 05:01:00,
2013-03-06 00:02:00,26.1,-99.9,29.94,ENE,66,0.0,0.0,-999,0.00,,,-99.99,perl,2013-03-06 05:02:00,
2013-03-06 00:04:00,25.9,-99.9,29.94,ENE,66,0.0,0.0,-999,0.00,,,-99.99,perl,2013-03-06 05:04:00,
2013-03-06 00:09:00,25.5,-99.9,29.94,ENE,65,0.0,0.0,-999,0.00,,,-99.99,perl,2013-03-06 05:09:00,
2013-03-06 00:15:00,25.3,-99.9,29.94,ENE,64,0.0,0.0,-999,0.00,,,-99.99,perl,2013-03-06 05:15:00,
2013-03-06 00:19:00,25.3,-99.9,29.94,ENE,66,0.0,0.0,-999,0.00,,,-99.99,perl,2013-03-06 05:19:00,
2013-03-06 00:24:00,25.2,-99.9,29.94,ENE,66,0.0,0.0,-999,0.00,,,-99.99,perl,2013-03-06 05:24:00,
2013-03-06 00:29:00,25.0,-99.9,29.94,ENE,64,0.0,0.0,-999,0.00,,,-99.99,perl,2013-03-06 05:29:00,
2013-03-06 00:34:00,24.8,-99.9,29.94,South,183,0.0,0.0,-999,0.00,,,-99.99,perl,2013-03-06 05:34:00,
2013-03-06 00:39:00,24.6,-99.9,29.94,South,171,0.0,0.0,-999,0.00,,,-99.99,perl,2013-03-06 05:39:00,
2013-03-06 00:44:00,24.6,-99.9,29.94,South,170,0.0,0.0,-999,0.00,,,-99.99,perl,2013-03-06 05:44:00,
2013-03-06 00:49:00,24.4,-99.9,29.94,South,170,0.0,0.0,-999,0.00,,,-99.99,perl,2013-03-06 05:49:00,
2013-03-06 00:54:00,24.4,-99.9,29.94,South,169,0.0,0.0,-999,0.00,,,-99.99,perl,2013-03-06 05:54:00,
2013-03-06 00:59:00,24.3,-99.9,29.94,South,171,0.0,0.0,-999,0.00,,,-99.99,perl,2013-03-06 05:59:00,
2013-03-06 01:04:00,24.1,-99.9,29.94,South,171,0.0,0.0,-999,0.00,,,-99.99,perl,2013-03-06 06:04:00,
2013-03-06 01:09:00,24.1,-99.9,29.94,South,170,0.0,0.0,-999,0.00,,,-99.99,perl,2013-03-06 06:09:00,
2013-03-06 01:14:00,24.3,-99.9,29.94,NNE,32,0.0,0.0,-999,0.00,,,-99.99,perl,2013-03-06 06:14:00,
2013-03-06 01:19:00,24.3,-99.9,29.94,NNE,32,0.0,0.0,-999,0.00,,,-99.99,perl,2013-03-06 06:19:00,
2013-03-06 01:24:00,24.4,-99.9,29.94,ENE,59,1.8,6.3,-999,0.00,,,-99.99,perl,2013-03-06 06:24:00,
2013-03-06 01:29:00,24.4,-99.9,29.94,East,86,0.0,0.0,-999,0.00,,,-99.99,perl,2013-03-06 06:29:00,
2013-03-06 01:34:00,24.4,-99.9,29.94,East,85,0.0,0.0,-999,0.00,,,-99.99,perl,2013-03-06 06:34:00,
2013-03-06 01:39:00,24.6,-99.9,29.94,NE,35,0.0,0.0,-999,0.00,,,-99.99,perl,2013-03-06 06:39:00,
2013-03-06 01:44:00,24.6,-99.9,29.94,NE,43,0.0,0.0,-999,0.00,,,-99.99,perl,2013-03-06 06:44:00,
2013-03-06 01:50:00,24.8,-99.9,29.94,NNE,29,0.0,0.0,-999,0.00,,,-99.99,perl,2013-03-06 06:50:00,
2013-03-06 01:55:00,25.2,-99.9,29.94,NE,36,3.4,3.6,-999,0.00,,,-99.99,perl,2013-03-06 06:55:00,
2013-03-06 02:01:00,25.3,-99.9,29.94,NE,52,0.7,0.0,-999,0.00,,,-99.99,perl,2013-03-06 07:01:00,
2013-03-06 02:06:00,25.3,-99.9,29.94,ENE,74,0.0,4.0,-999,0.00,,,-99.99,perl,2013-03-06 07:06:00,
2013-03-06 02:11:00,25.7,-99.9,29.94,NE,38,3.1,4.0,-999,0.00,,,-99.99,perl,2013-03-06 07:11:00,
2013-03-06 02:16:00,26.1,-99.9,29.94,NE,50,0.0,4.9,-999,0.00,,,-99.99,perl,2013-03-06 07:16:00,
2013-03-06 02:21:00,26.1,-99.9,29.94,NNE,27,0.0,0.0,-999,0.00,,,-99.99,perl,2013-03-06 07:21:00,
2013-03-06 02:27:00,26.2,-99.9,29.94,NE,43,3.5,5.8,-999,0.00,,,-99.99,perl,2013-03-06 07:27:00,
2013-03-06 02:32:00,26.2,-99.9,29.94,NE,56,0.0,4.0,-999,0.00,,,-99.99,perl,2013-03-06 07:32:00,
2013-03-06 02:37:00,26.2,-99.9,29.94,ENE,76,4.4,5.8,-999,0.00,,,-99.99,perl,2013-03-06 07:37:00,
2013-03-06 02:43:00,26.4,-99.9,29.94,NNE,27,0.0,0.0,-999,0.00,,,-99.99,perl,2013-03-06 07:43:00,
2013-03-06 02:48:00,26.2,-99.9,29.94,ENE,63,1.8,4.0,-999,0.00,,,-99.99,perl,2013-03-06 07:48:00,
2013-03-06 02:53:00,26.2,-99.9,29.94,ENE,71,2.7,3.6,-999,0.00,,,-99.99,perl,2013-03-06 07:53:00,
2013-03-06 02:58:00,26.4,-99.9,29.94,ENE,63,2.4,3.6,-999,0.00,,,-99.99,perl,2013-03-06 07:58:00,
2013-03-06 03:04:00,26.2,-99.9,29.94,ENE,76,0.0,3.6,-999,0.00,,,-99.99,perl,2013-03-06 08:04:00,
2013-03-06 03:09:00,26.1,-99.9,29.94,East,86,2.8,4.0,-999,0.00,,,-99.99,perl,2013-03-06 08:09:00,
2013-03-06 03:14:00,26.1,-99.9,29.94,East,95,0.0,0.0,-999,0.00,,,-99.99,perl,2013-03-06 08:14:00,
2013-03-06 03:19:00,26.1,-99.9,29.94,ENE,65,2.1,2.7,-999,0.00,,,-99.99,perl,2013-03-06 08:19:00,
2013-03-06 03:24:00,25.9,-99.9,29.94,NE,56,2.7,3.1,-999,0.00,,,-99.99,perl,2013-03-06 08:24:00,
2013-03-06 03:29:00,25.7,-99.9,29.94,ENE,78,0.0,0.0,-999,0.00,,,-99.99,perl,2013-03-06 08:29:00,
2013-03-06 03:34:00,25.5,-99.9,29.94,ENE,60,0.0,0.0,-999,0.00,,,-99.99,perl,2013-03-06 08:34:00,
2013-03-06 03:39:00,25.5,-99.9,29.94,ENE,62,2.0,3.1,-999,0.00,,,-99.99,perl,2013-03-06 08:39:00,
2013-03-06 03:44:00,25.5,-99.9,29.94,NE,52,0.0,0.0,-999,0.00,,,-99.99,perl,2013-03-06 08:44:00,
2013-03-06 03:49:00,25.5,-99.9,29.94,East,80,0.0,0.0,-999,0.00,,,-99.99,perl,2013-03-06 08:49:00,
2013-03-06 03:54:00,25.3,-99.9,29.94,NE,48,0.0,0.0,-999,0.00,,,-99.99,perl,2013-03-06 08:54:00,
2013-03-06 03:59:00,25.3,-99.9,29.94,NE,43,0.0,0.0,-999,0.00,,,-99.99,perl,2013-03-06 08:59:00,
2013-03-06 04:05:00,25.3,-99.9,29.94,NE,43,0.0,8.1,-999,0.00,,,-99.99,perl,2013-03-06 09:05:00,
2013-03-06 04:10:00,25.3,-99.9,29.94,NE,42,0.0,0.0,-999,0.00,,,-99.99,perl,2013-03-06 09:10:00,
2013-03-06 04:15:00,25.3,-99.9,29.94,East,79,0.0,0.0,-999,0.00,,,-99.99,perl,2013-03-06 09:15:00,
2013-03-06 04:20:00,25.3,-99.9,29.94,ENE,62,0.0,0.0,-999,0.00,,,-99.99,perl,2013-03-06 09:20:00,
2013-03-06 04:26:00,25.2,-99.9,29.94,NE,49,0.0,0.0,-999,0.00,,,-99.99,perl,2013-03-06 09:26:00,
2013-03-06 04:31:00,25.3,-99.9,29.94,NNE,24,0.0,0.0,-999,0.00,,,-99.99,perl,2013-03-06 09:31:00,
2013-03-06 04:36:00,25.3,-99.9,29.94,East,82,0.0,4.0,-999,0.00,,,-99.99,perl,2013-03-06 09:36:00,
2013-03-06 04:42:00,25.3,-99.9,29.94,ENE,70,0.0,0.0,-999,0.00,,,-99.99,perl,2013-03-06 09:42:00,
2013-03-06 04:47:00,25.5,-99.9,29.94,NE,49,2.6,3.1,-999,0.00,,,-99.99,perl,2013-03-06 09:47:00,
2013-03-06 04:53:00,25.7,-99.9,29.94,ENE,60,0.0,0.0,-999,0.00,,,-99.99,perl,2013-03-06 09:53:00,
2013-03-06 04:59:00,25.9,-99.9,29.94,ENE,60,0.0,0.0,-999,0.00,,,-99.99,perl,2013-03-06 09:59:00,
2013-03-06 05:05:00,26.1,-99.9,29.94,ENE,63,2.5,4.0,-999,0.00,,,-99.99,perl,2013-03-06 10:05:00,
2013-03-06 05:11:00,26.2,-99.9,29.94,NNE,25,0.7,0.0,-999,0.00,,,-99.99,perl,2013-03-06 10:11:00,
2013-03-06 05:16:00,26.2,-99.9,29.94,NNE,32,0.0,0.0,-999,0.00,,,-99.99,perl,2013-03-06 10:16:00,
2013-03-06 05:22:00,26.4,-99.9,29.94,East,93,2.2,3.1,-999,0.00,,,-99.99,perl,2013-03-06 10:22:00,
2013-03-06 05:27:00,26.6,-99.9,29.94,NE,52,0.0,3.1,-999,0.00,,,-99.99,perl,2013-03-06 10:27:00,
2013-03-06 05:32:00,26.6,-99.9,29.97,ESE,104,0.6,2.2,-999,0.00,,,-99.99,perl,2013-03-06 10:32:00,
2013-03-06 05:37:00,26.6,-99.9,29.97,ESE,117,3.1,3.1,-999,0.00,,,-99.99,perl,2013-03-06 10:37:00,
2013-03-06 05:42:00,26.6,-99.9,29.97,NE,44,2.0,3.1,-999,0.00,,,-99.99,perl,2013-03-06 10:42:00,
2013-03-06 05:48:00,26.6,-99.9,29.97,NE,35,0.0,0.0,-999,0.00,,,-99.99,perl,2013-03-06 10:48:00,
2013-03-06 05:53:00,26.6,-99.9,29.97,North,0,0.0,0.0,-999,0.00,,,-99.99,perl,2013-03-06 10:53:00,
2013-03-06 05:58:00,26.6,-99.9,29.97,North,357,0.0,0.0,-999,0.00,,,-99.99,perl,2013-03-06 10:58:00,
2013-03-06 06:03:00,26.6,-99.9,29.97,North,357,0.0,0.0,-999,0.00,,,-99.99,perl,2013-03-06 11:03:00,
2013-03-06 06:09:00,26.6,-99.9,29.97,North,357,0.0,0.0,-999,0.00,,,-99.99,perl,2013-03-06 11:09:00,
2013-03-06 06:14:00,26.6,-99.9,29.97,NNE,21,0.0,0.0,-999,0.00,,,-99.99,perl,2013-03-06 11:14:00,
2013-03-06 06:19:00,26.6,-99.9,29.97,North,4,0.0,0.0,-999,0.00,,,-99.99,perl,2013-03-06 11:19:00,
2013-03-06 06:24:00,26.6,-99.9,29.97,NNE,13,0.0,0.0,-999,0.00,,,-99.99,perl,2013-03-06 11:24:00,
2013-03-06 06:29:00,26.6,-99.9,29.97,NNE,16,0.0,0.0,-999,0.00,,,-99.99,perl,2013-03-06 11:29:00,
2013-03-06 06:34:00,26.8,-99.9,29.97,NNE,17,0.0,0.0,-999,0.00,,,-99.99,perl,2013-03-06 11:34:00,
2013-03-06 06:39:00,27.0,-99.9,29.97,NE,51,0.0,0.0,-999,0.00,,,-99.99,perl,2013-03-06 11:39:00,
2013-03-06 06:44:00,27.0,-99.9,30.00,NNE,33,0.0,0.0,-999,0.00,,,-99.99,perl,2013-03-06 11:44:00,
2013-03-06 06:49:00,27.1,-99.9,30.00,NNE,12,0.0,0.0,-999,0.00,,,-99.99,perl,2013-03-06 11:49:00,
2013-03-06 06:54:00,27.1,-99.9,30.00,NNE,13,0.0,0.0,-999,0.00,,,-99.99,perl,2013-03-06 11:54:00,
2013-03-06 06:59:00,27.3,-99.9,30.00,NNE,12,0.0,0.0,-999,0.00,,,-99.99,perl,2013-03-06 11:59:00,
2013-03-06 07:05:00,27.3,-99.9,30.00,NNE,18,0.0,0.0,-999,0.00,,,-99.99,perl,2013-03-06 12:05:00,
2013-03-06 07:11:00,27.5,-99.9,30.00,NNE,33,0.0,0.0,-999,0.00,,,-99.99,perl,2013-03-06 12:11:00,
2013-03-06 07:16:00,27.7,-99.9,30.00,NE,34,0.0,0.0,-999,0.00,,,-99.99,perl,2013-03-06 12:16:00,
2013-03-06 07:21:00,27.9,-99.9,30.00,NE,41,0.0,0.0,-999,0.00,,,-99.99,perl,2013-03-06 12:21:00,
2013-03-06 07:26:00,28.0,-99.9,30.00,NNE,22,0.0,0.0,-999,0.00,,,-99.99,perl,2013-03-06 12:26:00,
2013-03-06 07:31:00,28.2,-99.9,30.00,NNE,22,0.0,0.0,-999,0.00,,,-99.99,perl,2013-03-06 12:31:00,
2013-03-06 07:36:00,28.4,-99.9,30.00,NNE,24,0.0,0.0,-999,0.00,,,-99.99,perl,2013-03-06 12:36:00,
2013-03-06 07:41:00,28.6,-99.9,30.00,NE,49,0.0,0.0,-999,0.00,,,-99.99,perl,2013-03-06 12:41:00,
2013-03-06 07:46:00,28.6,-99.9,30.00,NE,41,0.0,0.0,-999,0.00,,,-99.99,perl,2013-03-06 12:46:00,
2013-03-06 07:51:00,28.9,-99.9,30.00,NNE,22,0.0,0.0,-999,0.00,,,-99.99,perl,2013-03-06 12:51:00,
2013-03-06 07:56:00,29.1,-99.9,30.00,NNE,24,0.0,0.0,-999,0.00,,,-99.99,perl,2013-03-06 12:56:00,
2013-03-06 08:01:00,29.3,-99.9,30.03,NE,53,0.0,0.0,-999,0.00,,,-99.99,perl,2013-03-06 13:01:00,
2013-03-06 08:06:00,29.5,-99.9,30.03,NE,53,0.0,0.0,-999,0.00,,,-99.99,perl,2013-03-06 13:06:00,
2013-03-06 08:11:00,29.7,-99.9,30.03,NNE,15,0.0,0.0,-999,0.00,,,-99.99,perl,2013-03-06 13:11:00,
2013-03-06 08:16:00,30.0,-99.9,30.03,NE,44,0.0,0.0,-999,0.00,,,-99.99,perl,2013-03-06 13:16:00,
2013-03-06 08:21:00,30.2,-99.9,30.03,ENE,57,0.0,0.0,-999,0.00,,,-99.99,perl,2013-03-06 13:21:00,
2013-03-06 08:26:00,30.4,-99.9,30.03,NE,56,1.7,3.6,-999,0.00,,,-99.99,perl,2013-03-06 13:26:00,
2013-03-06 08:31:00,30.7,-99.9,30.03,NE,50,0.0,0.0,-999,0.00,,,-99.99,perl,2013-03-06 13:31:00,
2013-03-06 08:37:00,30.9,-99.9,30.03,NNE,18,0.0,0.0,-999,0.00,,,-99.99,perl,2013-03-06 13:37:00,
2013-03-06 08:42:00,31.1,-99.9,30.03,NE,40,0.0,0.0,-999,0.00,,,-99.99,perl,2013-03-06 13:42:00,
2013-03-06 08:47:00,31.5,-99.9,30.03,NNE,24,0.0,0.0,-999,0.00,,,-99.99,perl,2013-03-06 13:47:00,
2013-03-06 08:53:00,31.8,-99.9,30.03,NNE,28,3.1,4.5,-999,0.00,,,-99.99,perl,2013-03-06 13:53:00,
2013-03-06 08:58:00,32.0,-99.9,30.03,NE,35,2.3,3.1,-999,0.00,,,-99.99,perl,2013-03-06 13:58:00,
2013-03-06 09:03:00,32.2,-99.9,30.03,NE,45,1.8,3.1,-999,0.00,,,-99.99,perl,2013-03-06 14:03:00,
2013-03-06 09:08:00,32.4,-99.9,30.03,ESE,106,0.8,4.0,-999,0.00,,,-99.99,perl,2013-03-06 14:08:00,
2013-03-06 09:14:00,32.5,-99.9,30.03,NNE,26,3.1,5.4,-999,0.00,,,-99.99,perl,2013-03-06 14:14:00,
2013-03-06 09:19:00,32.5,-99.9,30.03,ENE,77,0.0,0.0,-999,0.00,,,-99.99,perl,2013-03-06 14:19:00,
2013-03-06 09:24:00,32.7,-99.9,30.03,East,81,3.7,4.0,-999,0.00,,,-99.99,perl,2013-03-06 14:24:00,
2013-03-06 09:29:00,32.9,-99.9,30.03,NNE,30,0.6,3.1,-999,0.00,,,-99.99,perl,2013-03-06 14:29:00,
2013-03-06 09:34:00,33.1,-99.9,30.03,NE,38,4.0,5.4,-999,0.00,,,-99.99,perl,2013-03-06 14:34:00,
2013-03-06 09:39:00,33.3,-99.9,30.03,NE,54,2.2,3.6,-999,0.00,,,-99.99,perl,2013-03-06 14:39:00,
2013-03-06 09:45:00,33.6,-99.9,30.03,SE,125,1.7,3.1,-999,0.00,,,-99.99,perl,2013-03-06 14:45:00,
2013-03-06 09:51:00,33.8,-99.9,30.03,North,8,0.0,0.0,-999,0.00,,,-99.99,perl,2013-03-06 14:51:00,
2013-03-06 09:56:00,34.0,-99.9,30.03,NNE,22,3.1,3.6,-999,0.00,,,-99.99,perl,2013-03-06 14:56:00,
2013-03-06 10:01:00,34.2,-99.9,30.03,NE,46,3.0,5.4,-999,0.00,,,-99.99,perl,2013-03-06 15:01:00,
2013-03-06 10:06:00,34.5,-99.9,30.03,East,99,5.0,8.3,-999,0.00,,,-99.99,perl,2013-03-06 15:06:00,
2013-03-06 10:11:00,34.5,-99.9,30.03,NNE,30,4.2,4.9,-999,0.00,,,-99.99,perl,2013-03-06 15:11:00,
2013-03-06 10:16:00,34.7,-99.9,30.03,NE,47,3.0,7.6,-999,0.00,,,-99.99,perl,2013-03-06 15:16:00,
2013-03-06 10:22:00,35.1,-99.9,30.03,ENE,63,3.8,3.8,-999,0.00,,,-99.99,perl,2013-03-06 15:22:00,
2013-03-06 10:28:00,35.4,-99.9,30.03,ENE,70,4.0,6.3,-999,0.00,,,-99.99,perl,2013-03-06 15:28:00,
2013-03-06 10:33:00,35.8,-99.9,30.03,NNE,27,2.8,2.8,-999,0.00,,,-99.99,perl,2013-03-06 15:33:00,
2013-03-06 10:38:00,36.1,-99.9,30.03,NNE,19,3.6,8.1,-999,0.00,,,-99.99,perl,2013-03-06 15:38:00,
2013-03-06 10:43:00,36.1,-99.9,30.03,NE,36,4.4,4.9,-999,0.00,,,-99.99,perl,2013-03-06 15:43:00,
2013-03-06 10:48:00,36.3,-99.9,30.06,NNE,23,3.6,3.6,-999,0.00,,,-99.99,perl,2013-03-06 15:48:00,
2013-03-06 10:54:00,36.7,-99.9,30.06,NNE,32,3.7,8.3,-999,0.00,,,-99.99,perl,2013-03-06 15:54:00,
2013-03-06 10:59:00,37.0,-99.9,30.06,ESE,116,2.2,5.8,-999,0.00,,,-99.99,perl,2013-03-06 15:59:00,
2013-03-06 11:05:00,37.9,-99.9,30.06,ENE,65,4.9,8.1,-999,0.00,,,-99.99,perl,2013-03-06 16:05:00,
2013-03-06 11:10:00,38.3,-99.9,30.06,NE,38,3.1,5.8,-999,0.00,,,-99.99,perl,2013-03-06 16:10:00,
2013-03-06 11:15:00,38.5,-99.9,30.06,NE,42,5.0,5.8,-999,0.00,,,-99.99,perl,2013-03-06 16:15:00,
2013-03-06 11:20:00,38.8,-99.9,30.06,ENE,71,4.5,5.8,-999,0.00,,,-99.99,perl,2013-03-06 16:20:00,
2013-03-06 11:25:00,39.0,-99.9,30.06,East,89,2.8,10.5,-999,0.00,,,-99.99,perl,2013-03-06 16:25:00,
2013-03-06 11:30:00,39.2,-99.9,30.06,ENE,74,3.2,5.8,-999,0.00,,,-99.99,perl,2013-03-06 16:30:00,
2013-03-06 11:35:00,39.7,-99.9,30.06,ENE,66,3.0,5.4,-999,0.00,,,-99.99,perl,2013-03-06 16:35:00,
2013-03-06 11:40:00,40.1,-99.9,30.06,ENE,72,3.0,8.3,-999,0.00,,,-99.99,perl,2013-03-06 16:40:00,
2013-03-06 11:45:00,40.3,-99.9,30.06,ESE,116,3.1,5.4,-999,0.00,,,-99.99,perl,2013-03-06 16:45:00,
2013-03-06 11:50:00,39.9,-99.9,30.06,NE,36,3.6,4.9,-999,0.00,,,-99.99,perl,2013-03-06 16:50:00,
2013-03-06 11:56:00,39.7,-99.9,30.06,NE,36,4.7,5.8,-999,0.00,,,-99.99,perl,2013-03-06 16:56:00,
2013-03-06 12:01:00,39.6,-99.9,30.06,NNE,21,3.9,5.8,-999,0.00,,,-99.99,perl,2013-03-06 17:01:00,
2013-03-06 12:06:00,39.2,-99.9,30.06,ESE,111,2.2,4.0,-999,0.00,,,-99.99,perl,2013-03-06 17:06:00,
2013-03-06 12:11:00,39.2,-99.9,30.06,East,101,2.6,3.1,-999,0.00,,,-99.99,perl,2013-03-06 17:11:00,
2013-03-06 12:16:00,39.2,-99.9,30.06,NE,37,2.7,5.8,-999,0.00,,,-99.99,perl,2013-03-06 17:16:00,
2013-03-06 12:21:00,39.0,-99.9,30.06,ESE,105,2.0,3.6,-999,0.00,,,-99.99,perl,2013-03-06 17:21:00,
2013-03-06 12:26:00,38.8,-99.9,30.06,SE,143,0.5,3.1,-999,0.00,,,-99.99,perl,2013-03-06 17:26:00,
2013-03-06 12:31:00,38.8,-99.9,30.06,NE,35,4.3,5.8,-999,0.00,,,-99.99,perl,2013-03-06 17:31:00,
2013-03-06 12:36:00,39.0,-99.9,30.06,NE,43,3.8,3.8,-999,0.00,,,-99.99,perl,2013-03-06 17:36:00,
2013-03-06 12:41:00,39.4,-99.9,30.06,East,95,2.2,4.0,-999,0.00,,,-99.99,perl,2013-03-06 17:41:00,
2013-03-06 12:46:00,39.4,-99.9,30.06,NE,44,4.0,5.8,-999,0.00,,,-99.99,perl,2013-03-06 17:46:00,
2013-03-06 12:51:00,39.2,-99.9,30.06,ESE,110,4.5,5.8,-999,0.00,,,-99.99,perl,2013-03-06 17:51:00,
2013-03-06 12:56:00,38.7,-99.9,30.06,East,101,5.1,5.8,-999,0.00,,,-99.99,perl,2013-03-06 17:56:00,
2013-03-06 13:01:00,38.5,-99.9,30.06,NE,38,4.2,5.8,-999,0.00,,,-99.99,perl,2013-03-06 18:01:00,
2013-03-06 13:06:00,38.1,-99.9,30.06,NE,34,2.9,5.4,-999,0.00,,,-99.99,perl,2013-03-06 18:06:00,
2013-03-06 13:11:00,38.1,-99.9,30.06,ESE,103,3.3,5.8,-999,0.00,,,-99.99,perl,2013-03-06 18:11:00,
2013-03-06 13:16:00,38.1,-99.9,30.06,NNE,19,3.1,5.8,-999,0.00,,,-99.99,perl,2013-03-06 18:16:00,
2013-03-06 13:21:00,38.3,-99.9,30.06,ENE,60,3.1,3.1,-999,0.00,,,-99.99,perl,2013-03-06 18:21:00,
2013-03-06 13:26:00,38.5,-99.9,30.06,NNE,32,4.5,6.7,-999,0.00,,,-99.99,perl,2013-03-06 18:26:00,
2013-03-06 13:31:00,38.5,-99.9,30.06,NNE,19,3.0,5.8,-999,0.00,,,-99.99,perl,2013-03-06 18:31:00,
2013-03-06 13:36:00,38.5,-99.9,30.06,SE,141,4.1,4.1,-999,0.00,,,-99.99,perl,2013-03-06 18:36:00,
2013-03-06 13:41:00,38.5,-99.9,30.06,South,185,4.0,4.0,-999,0.00,,,-99.99,perl,2013-03-06 18:41:00,
2013-03-06 13:46:00,38.5,-99.9,30.06,ESE,107,1.0,0.0,-999,0.00,,,-99.99,perl,2013-03-06 18:46:00,
2013-03-06 13:51:00,38.5,-99.9,30.06,NNE,24,2.7,3.1,-999,0.00,,,-99.99,perl,2013-03-06 18:51:00,
2013-03-06 13:56:00,38.5,-99.9,30.06,NE,35,4.1,5.8,-999,0.00,,,-99.99,perl,2013-03-06 18:56:00,
2013-03-06 14:02:00,38.3,-99.9,30.06,NNE,24,1.5,3.1,-999,0.00,,,-99.99,perl,2013-03-06 19:02:00,
2013-03-06 14:07:00,38.1,-99.9,30.06,ESE,119,4.3,5.4,-999,0.00,,,-99.99,perl,2013-03-06 19:07:00,
2013-03-06 14:12:00,38.1,-99.9,30.06,ESE,119,4.5,5.4,-999,0.00,,,-99.99,perl,2013-03-06 19:12:00,
2013-03-06 14:17:00,38.1,-99.9,30.06,North,9,4.1,4.1,-999,0.00,,,-99.99,perl,2013-03-06 19:17:00,
2013-03-06 14:22:00,37.9,-99.9,30.06,NNE,20,4.9,5.8,-999,0.00,,,-99.99,perl,2013-03-06 19:22:00,
2013-03-06 14:27:00,37.8,-99.9,30.06,South,190,1.7,3.6,-999,0.00,,,-99.99,perl,2013-03-06 19:27:00,
2013-03-06 14:32:00,37.8,-99.9,30.06,NE,44,3.0,3.0,-999,0.00,,,-99.99,perl,2013-03-06 19:32:00,
2013-03-06 14:37:00,37.6,-99.9,30.06,NNE,22,2.6,0.0,-999,0.00,,,-99.99,perl,2013-03-06 19:37:00,
2013-03-06 14:42:00,37.6,-99.9,30.06,East,85,2.1,4.0,-999,0.00,,,-99.99,perl,2013-03-06 19:42:00,
2013-03-06 14:47:00,37.6,-99.9,30.06,NNE,26,4.5,4.5,-999,0.00,,,-99.99,perl,2013-03-06 19:47:00,
2013-03-06 14:52:00,37.6,-99.9,30.06,NNE,28,3.5,4.9,-999,0.00,,,-99.99,perl,2013-03-06 19:52:00,
2013-03-06 14:57:00,37.6,-99.9,30.06,SE,127,2.7,0.0,-999,0.00,,,-99.99,perl,2013-03-06 19:57:00,
2013-03-06 15:02:00,37.6,-99.9,30.06,ESE,105,2.0,3.1,-999,0.00,,,-99.99,perl,2013-03-06 20:02:00,
2013-03-06 15:07:00,37.4,-99.9,30.06,ESE,121,3.4,6.3,-999,0.00,,,-99.99,perl,2013-03-06 20:07:00,
2013-03-06 15:12:00,37.4,-99.9,30.06,NE,34,3.8,5.4,-999,0.00,,,-99.99,perl,2013-03-06 20:12:00,
2013-03-06 15:17:00,37.4,-99.9,30.06,NNE,28,4.3,4.9,-999,0.00,,,-99.99,perl,2013-03-06 20:17:00,
2013-03-06 15:22:00,37.4,-99.9,30.06,NNE,23,4.5,5.8,-999,0.00,,,-99.99,perl,2013-03-06 20:22:00,
2013-03-06 15:27:00,37.4,-99.9,30.06,South,180,2.7,4.9,-999,0.00,,,-99.99,perl,2013-03-06 20:27:00,
2013-03-06 15:32:00,37.4,-99.9,30.06,NNE,30,3.6,5.4,-999,0.00,,,-99.99,perl,2013-03-06 20:32:00,
2013-03-06 15:37:00,37.6,-99.9,30.06,East,100,4.6,6.3,-999,0.00,,,-99.99,perl,2013-03-06 20:37:00,
2013-03-06 15:42:00,37.6,-99.9,30.06,NE,48,4.6,5.8,-999,0.00,,,-99.99,perl,2013-03-06 20:42:00,
2013-03-06 15:47:00,37.8,-99.9,30.06,ESE,115,2.5,3.6,-999,0.00,,,-99.99,perl,2013-03-06 20:47:00,
2013-03-06 15:53:00,37.8,-99.9,30.06,NNE,29,2.2,3.1,-999,0.00,,,-99.99,perl,2013-03-06 20:53:00,
2013-03-06 15:58:00,37.8,-99.9,30.06,NE,43,0.0,5.4,-999,0.00,,,-99.99,perl,2013-03-06 20:58:00,
2013-03-06 16:03:00,37.8,-99.9,30.06,NE,43,4.7,4.7,-999,0.00,,,-99.99,perl,2013-03-06 21:03:00,
2013-03-06 16:08:00,37.6,-99.9,30.06,NNE,25,2.9,4.9,-999,0.00,,,-99.99,perl,2013-03-06 21:08:00,
2013-03-06 16:13:00,37.6,-99.9,30.06,NNE,33,4.6,5.4,-999,0.00,,,-99.99,perl,2013-03-06 21:13:00,
2013-03-06 16:18:00,37.6,-99.9,30.06,NNE,16,3.6,3.6,-999,0.00,,,-99.99,perl,2013-03-06 21:18:00,
2013-03-06 16:24:00,37.6,-99.9,30.06,NNE,17,3.4,5.8,-999,0.00,,,-99.99,perl,2013-03-06 21:24:00,
2013-03-06 16:30:00,37.6,-99.9,30.06,ENE,59,3.4,3.4,-999,0.00,,,-99.99,perl,2013-03-06 21:30:00,
2013-03-06 16:35:00,37.6,-99.9,30.06,East,101,3.1,5.4,-999,0.00,,,-99.99,perl,2013-03-06 21:35:00,
2013-03-06 16:40:00,37.6,-99.9,30.06,NE,39,3.6,7.6,-999,0.00,,,-99.99,perl,2013-03-06 21:40:00,
2013-03-06 16:45:00,37.6,-99.9,30.08,NNE,19,2.3,2.7,-999,0.00,,,-99.99,perl,2013-03-06 21:45:00,
2013-03-06 16:50:00,37.6,-99.9,30.08,East,87,3.5,5.4,-999,0.00,,,-99.99,perl,2013-03-06 21:50:00,
2013-03-06 16:55:00,37.4,-99.9,30.08,ENE,78,3.6,4.0,-999,0.00,,,-99.99,perl,2013-03-06 21:55:00,
2013-03-06 17:00:00,37.6,-99.9,30.08,NNE,29,4.0,6.3,-999,0.00,,,-99.99,perl,2013-03-06 22:00:00,
2013-03-06 17:05:00,37.6,-99.9,30.08,NNE,21,2.8,3.6,-999,0.00,,,-99.99,perl,2013-03-06 22:05:00,
2013-03-06 17:10:00,37.6,-99.9,30.08,NE,36,4.0,4.0,-999,0.00,,,-99.99,perl,2013-03-06 22:10:00,
2013-03-06 17:15:00,37.6,-99.9,30.08,NNE,32,3.2,5.8,-999,0.00,,,-99.99,perl,2013-03-06 22:15:00,
2013-03-06 17:20:00,37.6,-99.9,30.08,NE,41,3.2,6.3,-999,0.00,,,-99.99,perl,2013-03-06 22:20:00,
2013-03-06 17:25:00,37.4,-99.9,30.08,NNE,30,4.0,4.9,-999,0.00,,,-99.99,perl,2013-03-06 22:25:00,
2013-03-06 17:30:00,37.4,-99.9,30.08,NE,36,3.2,5.4,-999,0.00,,,-99.99,perl,2013-03-06 22:30:00,
2013-03-06 17:35:00,37.4,-99.9,30.08,NE,43,4.9,5.8,-999,0.00,,,-99.99,perl,2013-03-06 22:35:00,
2013-03-06 17:40:00,37.4,-99.9,30.08,SE,136,2.8,3.1,-999,0.00,,,-99.99,perl,2013-03-06 22:40:00,
2013-03-06 17:45:00,37.4,-99.9,30.08,NNE,21,3.1,4.0,-999,0.00,,,-99.99,perl,2013-03-06 22:45:00,
2013-03-06 17:50:00,37.2,-99.9,30.08,NNE,31,3.0,5.4,-999,0.00,,,-99.99,perl,2013-03-06 22:50:00,
2013-03-06 17:55:00,37.2,-99.9,30.08,NE,45,0.0,0.0,-999,0.00,,,-99.99,perl,2013-03-06 22:55:00,
2013-03-06 18:00:00,37.2,-99.9,30.08,NNE,32,3.4,4.9,-999,0.00,,,-99.99,perl,2013-03-06 23:00:00,
2013-03-06 18:05:00,37.2,-99.9,30.08,East,98,3.6,5.4,-999,0.00,,,-99.99,perl,2013-03-06 23:05:00,
2013-03-06 18:10:00,37.2,-99.9,30.08,NE,51,2.7,3.1,-999,0.00,,,-99.99,perl,2013-03-06 23:10:00,
2013-03-06 18:15:00,37.0,-99.9,30.08,NE,46,3.6,5.8,-999,0.00,,,-99.99,perl,2013-03-06 23:15:00,
2013-03-06 18:21:00,37.0,-99.9,30.08,NE,43,3.5,6.3,-999,0.00,,,-99.99,perl,2013-03-06 23:21:00,
2013-03-06 18:26:00,37.0,-99.9,30.08,SSE,152,3.7,4.0,-999,0.00,,,-99.99,perl,2013-03-06 23:26:00,
2013-03-06 18:31:00,37.0,-99.9,30.11,NE,39,0.0,4.0,-999,0.00,,,-99.99,perl,2013-03-06 23:31:00,
2013-03-06 18:36:00,37.0,-99.9,30.11,NE,50,4.0,5.8,-999,0.00,,,-99.99,perl,2013-03-06 23:36:00,
2013-03-06 18:41:00,37.0,-99.9,30.11,NE,35,2.7,4.5,-999,0.00,,,-99.99,perl,2013-03-06 23:41:00,
2013-03-06 18:46:00,37.0,-99.9,30.11,NNE,29,3.4,6.3,-999,0.00,,,-99.99,perl,2013-03-06 23:46:00,
2013-03-06 18:51:00,37.0,-99.9,30.11,East,98,3.7,3.7,-999,0.00,,,-99.99,perl,2013-03-06 23:51:00,
2013-03-06 18:56:00,37.0,-99.9,30.11,ESE,105,4.0,4.5,-999,0.00,,,-99.99,perl,2013-03-06 23:56:00,
2013-03-06 19:01:00,37.0,-99.9,30.11,East,84,3.6,3.6,-999,0.00,,,-99.99,perl,2013-03-07 00:01:00,
2013-03-06 19:06:00,37.0,-99.9,30.11,NE,38,2.7,6.3,-999,0.00,,,-99.99,perl,2013-03-07 00:06:00,
2013-03-06 19:11:00,37.0,-99.9,30.11,ESE,121,3.9,5.8,-999,0.00,,,-99.99,perl,2013-03-07 00:11:00,
2013-03-06 19:16:00,37.0,-99.9,30.11,NNE,24,3.6,5.8,-999,0.00,,,-99.99,perl,2013-03-07 00:16:00,
2013-03-06 19:21:00,37.0,-99.9,30.11,NE,47,4.0,4.5,-999,0.00,,,-99.99,perl,2013-03-07 00:21:00,
2013-03-06 19:27:00,37.2,-99.9,30.11,NNE,32,4.0,5.8,-999,0.00,,,-99.99,perl,2013-03-07 00:27:00,
2013-03-06 19:32:00,37.2,-99.9,30.11,NNE,22,2.6,5.8,-999,0.00,,,-99.99,perl,2013-03-07 00:32:00,
2013-03-06 19:37:00,37.2,-99.9,30.11,NE,45,4.0,4.0,-999,0.00,,,-99.99,perl,2013-03-07 00:37:00,
2013-03-06 19:42:00,37.2,-99.9,30.11,NNE,33,0.0,6.3,-999,0.00,,,-99.99,perl,2013-03-07 00:42:00,
2013-03-06 19:47:00,37.0,-99.9,30.11,NNE,33,3.5,4.9,-999,0.00,,,-99.99,perl,2013-03-07 00:47:00,
2013-03-06 19:52:00,37.0,-99.9,30.11,ESE,111,2.3,3.6,-999,0.00,,,-99.99,perl,2013-03-07 00:52:00,
2013-03-06 19:57:00,36.9,-99.9,30.11,NE,40,4.1,4.9,-999,0.00,,,-99.99,perl,2013-03-07 00:57:00,
2013-03-06 20:02:00,36.9,-99.9,30.11,NNE,31,3.6,4.9,-999,0.00,,,-99.99,perl,2013-03-07 01:02:00,
2013-03-06 20:08:00,36.7,-99.9,30.11,NE,46,0.0,0.0,-999,0.00,,,-99.99,perl,2013-03-07 01:08:00,
2013-03-06 20:13:00,36.7,-99.9,30.11,NNE,13,2.2,0.0,-999,0.00,,,-99.99,perl,2013-03-07 01:13:00,
2013-03-06 20:18:00,36.5,-99.9,30.11,East,88,3.1,3.6,-999,0.00,,,-99.99,perl,2013-03-07 01:18:00,
2013-03-06 20:23:00,36.5,-99.9,30.11,West,270,2.2,2.2,-999,0.00,,,-99.99,perl,2013-03-07 01:23:00,
2013-03-06 20:28:00,36.3,-99.9,30.11,NE,51,0.8,4.0,-999,0.00,,,-99.99,perl,2013-03-07 01:28:00,
2013-03-06 20:33:00,36.3,-99.9,30.11,ENE,58,3.6,3.6,-999,0.00,,,-99.99,perl,2013-03-07 01:33:00,
2013-03-06 20:38:00,36.3,-99.9,30.11,NE,39,3.5,3.6,-999,0.00,,,-99.99,perl,2013-03-07 01:38:00,
2013-03-06 20:43:00,36.3,-99.9,30.11,NE,43,2.7,2.7,-999,0.00,,,-99.99,perl,2013-03-07 01:43:00,
2013-03-06 20:49:00,36.3,-99.9,30.11,East,96,0.7,0.0,-999,0.00,,,-99.99,perl,2013-03-07 01:49:00,
2013-03-06 20:54:00,36.3,-99.9,30.11,NE,38,2.7,3.6,-999,0.00,,,-99.99,perl,2013-03-07 01:54:00,
2013-03-06 20:59:00,36.3,-99.9,30.11,NE,45,3.0,5.4,-999,0.00,,,-99.99,perl,2013-03-07 01:59:00,
2013-03-06 21:04:00,36.5,-99.9,30.11,NNE,12,0.6,0.0,-999,0.00,,,-99.99,perl,2013-03-07 02:04:00,
2013-03-06 21:10:00,36.3,-99.9,30.11,NE,43,4.0,4.0,-999,0.00,,,-99.99,perl,2013-03-07 02:10:00,
2013-03-06 21:15:00,36.5,-99.9,30.11,NE,39,2.7,5.4,-999,0.00,,,-99.99,perl,2013-03-07 02:15:00,
2013-03-06 21:20:00,36.3,-99.9,30.11,NNE,23,2.2,2.2,-999,0.00,,,-99.99,perl,2013-03-07 02:20:00,
2013-03-06 21:26:00,36.3,-99.9,30.11,NNE,23,3.1,3.1,-999,0.00,,,-99.99,perl,2013-03-07 02:26:00,
2013-03-06 21:31:00,36.3,-99.9,30.11,ENE,60,0.0,0.0,-999,0.00,,,-99.99,perl,2013-03-07 02:31:00,
2013-03-06 21:36:00,36.3,-99.9,30.11,NE,45,0.0,2.2,-999,0.00,,,-99.99,perl,2013-03-07 02:36:00,
2013-03-06 21:41:00,36.3,-99.9,30.11,NE,40,0.0,0.0,-999,0.00,,,-99.99,perl,2013-03-07 02:41:00,
2013-03-06 21:46:00,36.3,-99.9,30.11,NNE,20,0.0,0.0,-999,0.00,,,-99.99,perl,2013-03-07 02:46:00,
2013-03-06 21:51:00,36.3,-99.9,30.11,West,269,0.0,0.0,-999,0.00,,,-99.99,perl,2013-03-07 02:51:00,
2013-03-06 21:56:00,36.1,-99.9,30.11,SW,219,0.0,0.0,-999,0.00,,,-99.99,perl,2013-03-07 02:56:00,
2013-03-06 22:01:00,36.1,-99.9,30.11,NNE,12,0.0,0.0,-999,0.00,,,-99.99,perl,2013-03-07 03:01:00,
2013-03-06 22:06:00,36.1,-99.9,30.11,NNE,26,0.0,0.0,-999,0.00,,,-99.99,perl,2013-03-07 03:06:00,
2013-03-06 22:11:00,36.1,-99.9,30.11,NE,37,0.0,0.0,-999,0.00,,,-99.99,perl,2013-03-07 03:11:00,
2013-03-06 22:16:00,36.1,-99.9,30.11,NE,37,0.0,0.0,-999,0.00,,,-99.99,perl,2013-03-07 03:16:00,
2013-03-06 22:21:00,36.0,-99.9,30.11,East,84,0.0,0.0,-999,0.00,,,-99.99,perl,2013-03-07 03:21:00,
2013-03-06 22:26:00,36.0,-99.9,30.11,East,88,0.0,0.0,-999,0.00,,,-99.99,perl,2013-03-07 03:26:00,
2013-03-06 22:32:00,36.0,-99.9,30.11,ENE,77,0.0,0.0,-999,0.00,,,-99.99,perl,2013-03-07 03:32:00,
2013-03-06 22:37:00,35.8,-99.9,30.11,NE,50,0.0,0.0,-999,0.00,,,-99.99,perl,2013-03-07 03:37:00,
2013-03-06 22:42:00,35.8,-99.9,30.11,NE,38,0.0,0.0,-999,0.00,,,-99.99,perl,2013-03-07 03:42:00,
2013-03-06 22:47:00,35.8,-99.9,30.11,NE,37,0.0,0.0,-999,0.00,,,-99.99,perl,2013-03-07 03:47:00,
2013-03-06 22:52:00,35.8,-99.9,30.11,NE,37,0.0,0.0,-999,0.00,,,-99.99,perl,2013-03-07 03:52:00,
2013-03-06 22:57:00,35.6,-99.9,30.11,NE,37,0.0,0.0,-999,0.00,,,-99.99,perl,2013-03-07 03:57:00,
2013-03-06 23:02:00,35.6,-99.9,30.11,NE,37,0.0,0.0,-999,0.00,,,-99.99,perl,2013-03-07 04:02:00,
2013-03-06 23:07:00,35.4,-99.9,30.11,NE,38,0.0,0.0,-999,0.00,,,-99.99,perl,2013-03-07 04:07:00,
2013-03-06 23:12:00,35.4,-99.9,30.11,NE,37,0.0,0.0,-999,0.00,,,-99.99,perl,2013-03-07 04:12:00,
2013-03-06 23:17:00,35.4,-99.9,30.11,NE,38,0.0,0.0,-999,0.00,,,-99.99,perl,2013-03-07 04:17:00,
2013-03-06 23:22:00,35.4,-99.9,30.11,NE,37,0.0,0.0,-999,0.00,,,-99.99,perl,2013-03-07 04:22:00,
2013-03-06 23:28:00,35.2,-99.9,30.11,NE,38,0.0,0.0,-999,0.00,,,-99.99,perl,2013-03-07 04:28:00,
2013-03-06 23:33:00,35.2,-99.9,30.11,NE,38,0.0,0.0,-999,0.00,,,-99.99,perl,2013-03-07 04:33:00,
2013-03-06 23:38:00,35.2,-99.9,30.11,NE,37,0.0,0.0,-999,0.00,,,-99.99,perl,2013-03-07 04:38:00,
2013-03-06 23:43:00,35.2,-99.9,30.11,NE,37,0.0,0.0,-999,0.00,,,-99.99,perl,2013-03-07 04:43:00,
2013-03-06 23:48:00,35.1,-99.9,30.11,NE,37,0.0,0.0,-999,0.00,,,-99.99,perl,2013-03-07 04:48:00,
2013-03-06 23:53:00,35.1,-99.9,30.11,NE,38,0.0,0.0,-999,0.00,,,-99.99,perl,2013-03-07 04:53:00,
2013-03-06 23:58:00,35.1,-99.9,30.11,NE,37,0.0,0.0,-999,0.00,,,-99.99,perl,2013-03-07 04:58:00,